sensor_id;sensor_type;location;lat;lon;timestamp;P1;durP1;ratioP1;P2;durP2;ratioP2
13592;SDS011;6867;50.998;4.250;2023-04-24T00:00:53;18.57;;;10.97;;
13592;SDS011;6867;50.998;4.250;2023-04-24T00:03:21;18.27;;;11.03;;
13592;SDS011;6867;50.998;4.250;2023-04-24T00:05:48;21.77;;;11.30;;
13592;SDS011;6867;50.998;4.250;2023-04-24T00:08:16;20.97;;;11.37;;
13592;SDS011;6867;50.998;4.250;2023-04-24T00:10:44;19.20;;;10.23;;
13592;SDS011;6867;50.998;4.250;2023-04-24T00:13:11;19.13;;;11.13;;
13592;SDS011;6867;50.998;4.250;2023-04-24T00:15:38;20.93;;;11.67;;
13592;SDS011;6867;50.998;4.250;2023-04-24T00:18:05;20.67;;;10.83;;
13592;SDS011;6867;50.998;4.250;2023-04-24T00:20:31;18.97;;;11.37;;
13592;SDS011;6867;50.998;4.250;2023-04-24T00:23:00;19.33;;;10.93;;
13592;SDS011;6867;50.998;4.250;2023-04-24T00:25:27;18.77;;;11.53;;
13592;SDS011;6867;50.998;4.250;2023-04-24T00:27:55;20.50;;;11.70;;
13592;SDS011;6867;50.998;4.250;2023-04-24T00:30:21;18.57;;;11.63;;
13592;SDS011;6867;50.998;4.250;2023-04-24T00:32:48;21.73;;;10.80;;
13592;SDS011;6867;50.998;4.250;2023-04-24T00:35:15;20.93;;;12.60;;
13592;SDS011;6867;50.998;4.250;2023-04-24T00:37:42;18.63;;;11.33;;
13592;SDS011;6867;50.998;4.250;2023-04-24T00:40:09;21.97;;;11.73;;
13592;SDS011;6867;50.998;4.250;2023-04-24T00:42:36;18.63;;;11.37;;
13592;SDS011;6867;50.998;4.250;2023-04-24T00:45:05;16.53;;;11.03;;
13592;SDS011;6867;50.998;4.250;2023-04-24T00:47:33;18.60;;;11.57;;
13592;SDS011;6867;50.998;4.250;2023-04-24T00:50:00;16.47;;;10.93;;
13592;SDS011;6867;50.998;4.250;2023-04-24T00:52:28;16.30;;;10.70;;
13592;SDS011;6867;50.998;4.250;2023-04-24T00:54:56;18.00;;;11.50;;
13592;SDS011;6867;50.998;4.250;2023-04-24T00:57:23;22.30;;;11.10;;
13592;SDS011;6867;50.998;4.250;2023-04-24T00:59:50;20.53;;;11.57;;
13592;SDS011;6867;50.998;4.250;2023-04-24T01:02:19;20.43;;;11.53;;
13592;SDS011;6867;50.998;4.250;2023-04-24T01:04:50;18.20;;;11.37;;
13592;SDS011;6867;50.998;4.250;2023-04-24T01:07:17;21.23;;;12.07;;
13592;SDS011;6867;50.998;4.250;2023-04-24T01:09:46;20.67;;;11.63;;
13592;SDS011;6867;50.998;4.250;2023-04-24T01:12:16;20.47;;;10.83;;
13592;SDS011;6867;50.998;4.250;2023-04-24T01:14:43;17.70;;;11.00;;
13592;SDS011;6867;50.998;4.250;2023-04-24T01:17:10;19.10;;;10.43;;
13592;SDS011;6867;50.998;4.250;2023-04-24T01:19:38;21.67;;;11.97;;
13592;SDS011;6867;50.998;4.250;2023-04-24T01:22:09;18.63;;;10.53;;
13592;SDS011;6867;50.998;4.250;2023-04-24T01:24:37;19.70;;;10.63;;
13592;SDS011;6867;50.998;4.250;2023-04-24T01:27:04;15.33;;;10.43;;
13592;SDS011;6867;50.998;4.250;2023-04-24T01:29:31;15.47;;;9.73;;
13592;SDS011;6867;50.998;4.250;2023-04-24T01:31:58;17.10;;;9.80;;
13592;SDS011;6867;50.998;4.250;2023-04-24T01:34:25;14.60;;;10.00;;
13592;SDS011;6867;50.998;4.250;2023-04-24T01:36:52;16.37;;;9.07;;
13592;SDS011;6867;50.998;4.250;2023-04-24T01:39:20;14.07;;;9.00;;
13592;SDS011;6867;50.998;4.250;2023-04-24T01:41:48;13.87;;;9.07;;
13592;SDS011;6867;50.998;4.250;2023-04-24T01:44:15;11.40;;;8.03;;
13592;SDS011;6867;50.998;4.250;2023-04-24T01:46:42;11.07;;;7.57;;
13592;SDS011;6867;50.998;4.250;2023-04-24T01:49:09;13.97;;;7.13;;
13592;SDS011;6867;50.998;4.250;2023-04-24T01:51:36;13.20;;;7.23;;
13592;SDS011;6867;50.998;4.250;2023-04-24T01:54:03;14.13;;;8.20;;
13592;SDS011;6867;50.998;4.250;2023-04-24T01:56:31;10.33;;;7.33;;
13592;SDS011;6867;50.998;4.250;2023-04-24T01:59:00;9.30;;;6.30;;
13592;SDS011;6867;50.998;4.250;2023-04-24T02:01:32;9.77;;;6.50;;
13592;SDS011;6867;50.998;4.250;2023-04-24T02:04:00;7.93;;;6.27;;
13592;SDS011;6867;50.998;4.250;2023-04-24T02:06:26;10.20;;;6.80;;
13592;SDS011;6867;50.998;4.250;2023-04-24T02:08:53;8.80;;;6.27;;
13592;SDS011;6867;50.998;4.250;2023-04-24T02:11:20;8.40;;;6.20;;
13592;SDS011;6867;50.998;4.250;2023-04-24T02:13:48;7.60;;;5.70;;
13592;SDS011;6867;50.998;4.250;2023-04-24T02:16:15;8.63;;;7.00;;
13592;SDS011;6867;50.998;4.250;2023-04-24T02:18:42;9.27;;;6.53;;
13592;SDS011;6867;50.998;4.250;2023-04-24T02:21:08;10.13;;;6.63;;
13592;SDS011;6867;50.998;4.250;2023-04-24T02:23:35;9.40;;;6.80;;
13592;SDS011;6867;50.998;4.250;2023-04-24T02:26:02;8.80;;;6.90;;
13592;SDS011;6867;50.998;4.250;2023-04-24T02:28:29;13.57;;;8.17;;
13592;SDS011;6867;50.998;4.250;2023-04-24T02:30:57;16.10;;;8.60;;
13592;SDS011;6867;50.998;4.250;2023-04-24T02:33:23;14.60;;;8.90;;
13592;SDS011;6867;50.998;4.250;2023-04-24T02:35:50;12.93;;;8.80;;
13592;SDS011;6867;50.998;4.250;2023-04-24T02:38:17;14.43;;;8.73;;
13592;SDS011;6867;50.998;4.250;2023-04-24T02:40:44;13.00;;;8.67;;
13592;SDS011;6867;50.998;4.250;2023-04-24T02:43:10;13.10;;;8.83;;
13592;SDS011;6867;50.998;4.250;2023-04-24T02:45:37;12.50;;;8.97;;
13592;SDS011;6867;50.998;4.250;2023-04-24T02:48:05;16.90;;;9.57;;
13592;SDS011;6867;50.998;4.250;2023-04-24T02:50:32;12.50;;;9.40;;
13592;SDS011;6867;50.998;4.250;2023-04-24T02:52:59;16.03;;;10.30;;
13592;SDS011;6867;50.998;4.250;2023-04-24T02:55:25;14.47;;;9.23;;
13592;SDS011;6867;50.998;4.250;2023-04-24T02:57:53;15.40;;;9.40;;
13592;SDS011;6867;50.998;4.250;2023-04-24T03:00:20;13.40;;;8.93;;
13592;SDS011;6867;50.998;4.250;2023-04-24T03:02:46;13.63;;;9.03;;
13592;SDS011;6867;50.998;4.250;2023-04-24T03:05:15;12.73;;;8.93;;
13592;SDS011;6867;50.998;4.250;2023-04-24T03:07:42;15.37;;;9.50;;
13592;SDS011;6867;50.998;4.250;2023-04-24T03:10:10;13.50;;;8.27;;
13592;SDS011;6867;50.998;4.250;2023-04-24T03:12:37;14.47;;;9.00;;
13592;SDS011;6867;50.998;4.250;2023-04-24T03:15:04;14.17;;;8.77;;
13592;SDS011;6867;50.998;4.250;2023-04-24T03:17:31;16.33;;;8.40;;
13592;SDS011;6867;50.998;4.250;2023-04-24T03:19:58;16.20;;;9.37;;
13592;SDS011;6867;50.998;4.250;2023-04-24T03:22:26;10.97;;;8.17;;
13592;SDS011;6867;50.998;4.250;2023-04-24T03:24:52;12.07;;;8.17;;
13592;SDS011;6867;50.998;4.250;2023-04-24T03:27:19;10.10;;;7.67;;
13592;SDS011;6867;50.998;4.250;2023-04-24T03:29:46;13.00;;;8.43;;
13592;SDS011;6867;50.998;4.250;2023-04-24T03:32:13;12.30;;;8.17;;
13592;SDS011;6867;50.998;4.250;2023-04-24T03:34:40;9.97;;;7.47;;
13592;SDS011;6867;50.998;4.250;2023-04-24T03:37:06;11.73;;;7.60;;
13592;SDS011;6867;50.998;4.250;2023-04-24T03:39:34;11.97;;;7.83;;
13592;SDS011;6867;50.998;4.250;2023-04-24T03:42:01;14.57;;;9.30;;
13592;SDS011;6867;50.998;4.250;2023-04-24T03:44:28;13.17;;;7.80;;
13592;SDS011;6867;50.998;4.250;2023-04-24T03:46:54;10.83;;;7.83;;
13592;SDS011;6867;50.998;4.250;2023-04-24T03:49:21;13.93;;;7.83;;
13592;SDS011;6867;50.998;4.250;2023-04-24T03:51:48;10.13;;;7.30;;
13592;SDS011;6867;50.998;4.250;2023-04-24T03:54:14;9.67;;;6.67;;
13592;SDS011;6867;50.998;4.250;2023-04-24T03:56:42;11.00;;;7.03;;
13592;SDS011;6867;50.998;4.250;2023-04-24T03:59:09;8.70;;;6.53;;
13592;SDS011;6867;50.998;4.250;2023-04-24T04:01:36;11.73;;;7.10;;
13592;SDS011;6867;50.998;4.250;2023-04-24T04:04:04;9.70;;;6.47;;
13592;SDS011;6867;50.998;4.250;2023-04-24T04:06:31;10.40;;;6.73;;
13592;SDS011;6867;50.998;4.250;2023-04-24T04:08:58;10.00;;;6.10;;
13592;SDS011;6867;50.998;4.250;2023-04-24T04:11:25;10.50;;;7.10;;
13592;SDS011;6867;50.998;4.250;2023-04-24T04:13:53;11.07;;;6.50;;
13592;SDS011;6867;50.998;4.250;2023-04-24T04:16:20;14.80;;;6.97;;
13592;SDS011;6867;50.998;4.250;2023-04-24T04:18:47;9.67;;;5.63;;
13592;SDS011;6867;50.998;4.250;2023-04-24T04:21:14;8.07;;;5.93;;
13592;SDS011;6867;50.998;4.250;2023-04-24T04:23:40;9.93;;;6.07;;
13592;SDS011;6867;50.998;4.250;2023-04-24T04:26:07;9.33;;;6.43;;
13592;SDS011;6867;50.998;4.250;2023-04-24T04:28:34;13.93;;;7.20;;
13592;SDS011;6867;50.998;4.250;2023-04-24T04:31:02;11.47;;;7.90;;
13592;SDS011;6867;50.998;4.250;2023-04-24T04:33:29;11.97;;;7.70;;
13592;SDS011;6867;50.998;4.250;2023-04-24T04:35:56;16.67;;;9.37;;
13592;SDS011;6867;50.998;4.250;2023-04-24T04:38:22;14.50;;;9.60;;
13592;SDS011;6867;50.998;4.250;2023-04-24T04:40:49;15.77;;;9.80;;
13592;SDS011;6867;50.998;4.250;2023-04-24T04:43:16;17.83;;;10.47;;
13592;SDS011;6867;50.998;4.250;2023-04-24T04:45:43;17.53;;;11.77;;
13592;SDS011;6867;50.998;4.250;2023-04-24T04:48:11;20.80;;;11.30;;
13592;SDS011;6867;50.998;4.250;2023-04-24T04:50:38;18.50;;;10.97;;
13592;SDS011;6867;50.998;4.250;2023-04-24T04:53:05;17.77;;;10.90;;
13592;SDS011;6867;50.998;4.250;2023-04-24T04:55:32;21.47;;;11.23;;
13592;SDS011;6867;50.998;4.250;2023-04-24T04:57:59;21.63;;;11.13;;
13592;SDS011;6867;50.998;4.250;2023-04-24T05:00:26;17.90;;;11.53;;
13592;SDS011;6867;50.998;4.250;2023-04-24T05:02:55;19.60;;;11.90;;
13592;SDS011;6867;50.998;4.250;2023-04-24T05:05:23;21.77;;;12.33;;
13592;SDS011;6867;50.998;4.250;2023-04-24T05:07:50;20.33;;;11.67;;
13592;SDS011;6867;50.998;4.250;2023-04-24T05:10:16;22.60;;;11.27;;
13592;SDS011;6867;50.998;4.250;2023-04-24T05:12:43;18.43;;;11.87;;
13592;SDS011;6867;50.998;4.250;2023-04-24T05:15:10;21.87;;;11.57;;
13592;SDS011;6867;50.998;4.250;2023-04-24T05:17:37;19.67;;;11.30;;
13592;SDS011;6867;50.998;4.250;2023-04-24T05:20:05;21.30;;;10.87;;
13592;SDS011;6867;50.998;4.250;2023-04-24T05:22:34;17.80;;;10.20;;
13592;SDS011;6867;50.998;4.250;2023-04-24T05:25:01;20.20;;;11.53;;
13592;SDS011;6867;50.998;4.250;2023-04-24T05:27:27;16.57;;;10.30;;
13592;SDS011;6867;50.998;4.250;2023-04-24T05:29:54;21.90;;;11.13;;
13592;SDS011;6867;50.998;4.250;2023-04-24T05:32:21;19.97;;;12.03;;
13592;SDS011;6867;50.998;4.250;2023-04-24T05:34:47;19.93;;;10.83;;
13592;SDS011;6867;50.998;4.250;2023-04-24T05:37:14;21.63;;;11.50;;
13592;SDS011;6867;50.998;4.250;2023-04-24T05:39:42;17.67;;;10.97;;
13592;SDS011;6867;50.998;4.250;2023-04-24T05:42:09;26.57;;;11.80;;
13592;SDS011;6867;50.998;4.250;2023-04-24T05:44:35;22.83;;;11.73;;
13592;SDS011;6867;50.998;4.250;2023-04-24T05:47:02;22.23;;;11.07;;
13592;SDS011;6867;50.998;4.250;2023-04-24T05:49:29;24.60;;;11.70;;
13592;SDS011;6867;50.998;4.250;2023-04-24T05:51:56;25.50;;;12.30;;
13592;SDS011;6867;50.998;4.250;2023-04-24T05:54:23;23.87;;;12.03;;
13592;SDS011;6867;50.998;4.250;2023-04-24T05:56:51;22.63;;;13.27;;
13592;SDS011;6867;50.998;4.250;2023-04-24T05:59:19;23.40;;;13.77;;
13592;SDS011;6867;50.998;4.250;2023-04-24T06:01:46;20.37;;;11.90;;
13592;SDS011;6867;50.998;4.250;2023-04-24T06:04:12;24.70;;;11.93;;
13592;SDS011;6867;50.998;4.250;2023-04-24T06:06:39;22.57;;;12.83;;
13592;SDS011;6867;50.998;4.250;2023-04-24T06:09:06;22.47;;;11.90;;
13592;SDS011;6867;50.998;4.250;2023-04-24T06:11:33;29.87;;;13.30;;
13592;SDS011;6867;50.998;4.250;2023-04-24T06:14:01;22.90;;;12.03;;
13592;SDS011;6867;50.998;4.250;2023-04-24T06:16:27;24.67;;;13.03;;
13592;SDS011;6867;50.998;4.250;2023-04-24T06:18:55;19.13;;;12.50;;
13592;SDS011;6867;50.998;4.250;2023-04-24T06:21:22;22.97;;;12.97;;
13592;SDS011;6867;50.998;4.250;2023-04-24T06:23:49;23.27;;;13.30;;
13592;SDS011;6867;50.998;4.250;2023-04-24T06:26:15;23.57;;;13.03;;
13592;SDS011;6867;50.998;4.250;2023-04-24T06:28:42;27.17;;;14.63;;
13592;SDS011;6867;50.998;4.250;2023-04-24T06:31:10;22.80;;;12.47;;
13592;SDS011;6867;50.998;4.250;2023-04-24T06:33:37;25.60;;;12.27;;
13592;SDS011;6867;50.998;4.250;2023-04-24T06:36:04;24.37;;;15.53;;
13592;SDS011;6867;50.998;4.250;2023-04-24T06:38:30;24.30;;;13.60;;
13592;SDS011;6867;50.998;4.250;2023-04-24T06:40:57;28.03;;;15.30;;
13592;SDS011;6867;50.998;4.250;2023-04-24T06:43:24;31.77;;;14.27;;
13592;SDS011;6867;50.998;4.250;2023-04-24T06:45:50;27.57;;;15.20;;
13592;SDS011;6867;50.998;4.250;2023-04-24T06:48:18;26.77;;;14.20;;
13592;SDS011;6867;50.998;4.250;2023-04-24T06:50:45;30.00;;;14.80;;
13592;SDS011;6867;50.998;4.250;2023-04-24T06:53:12;31.90;;;15.10;;
13592;SDS011;6867;50.998;4.250;2023-04-24T06:55:39;28.97;;;15.43;;
13592;SDS011;6867;50.998;4.250;2023-04-24T06:58:06;29.93;;;14.47;;
13592;SDS011;6867;50.998;4.250;2023-04-24T07:00:33;28.27;;;14.47;;
13592;SDS011;6867;50.998;4.250;2023-04-24T07:03:00;31.80;;;14.97;;
13592;SDS011;6867;50.998;4.250;2023-04-24T07:05:28;29.47;;;14.57;;
13592;SDS011;6867;50.998;4.250;2023-04-24T07:07:55;24.70;;;14.40;;
13592;SDS011;6867;50.998;4.250;2023-04-24T07:10:23;27.20;;;14.57;;
13592;SDS011;6867;50.998;4.250;2023-04-24T07:12:52;26.40;;;15.10;;
13592;SDS011;6867;50.998;4.250;2023-04-24T07:15:19;37.07;;;14.37;;
13592;SDS011;6867;50.998;4.250;2023-04-24T07:17:45;29.50;;;14.43;;
13592;SDS011;6867;50.998;4.250;2023-04-24T07:20:12;28.53;;;14.60;;
13592;SDS011;6867;50.998;4.250;2023-04-24T07:22:41;31.13;;;15.13;;
13592;SDS011;6867;50.998;4.250;2023-04-24T07:25:08;25.23;;;14.43;;
13592;SDS011;6867;50.998;4.250;2023-04-24T07:27:35;28.00;;;14.40;;
13592;SDS011;6867;50.998;4.250;2023-04-24T07:30:02;24.10;;;13.30;;
13592;SDS011;6867;50.998;4.250;2023-04-24T07:32:29;27.27;;;14.13;;
13592;SDS011;6867;50.998;4.250;2023-04-24T07:34:55;26.47;;;12.53;;
13592;SDS011;6867;50.998;4.250;2023-04-24T07:37:22;26.27;;;12.50;;
13592;SDS011;6867;50.998;4.250;2023-04-24T07:39:50;29.97;;;11.70;;
13592;SDS011;6867;50.998;4.250;2023-04-24T07:42:17;25.90;;;11.37;;
13592;SDS011;6867;50.998;4.250;2023-04-24T07:44:44;16.13;;;8.40;;
13592;SDS011;6867;50.998;4.250;2023-04-24T07:47:11;16.17;;;7.37;;
13592;SDS011;6867;50.998;4.250;2023-04-24T07:49:40;12.03;;;5.70;;
13592;SDS011;6867;50.998;4.250;2023-04-24T07:52:07;13.93;;;5.63;;
13592;SDS011;6867;50.998;4.250;2023-04-24T07:54:34;6.33;;;4.80;;
13592;SDS011;6867;50.998;4.250;2023-04-24T07:57:03;10.63;;;5.20;;
13592;SDS011;6867;50.998;4.250;2023-04-24T07:59:31;9.97;;;5.63;;
13592;SDS011;6867;50.998;4.250;2023-04-24T08:01:58;15.90;;;6.27;;
13592;SDS011;6867;50.998;4.250;2023-04-24T08:04:26;18.30;;;7.10;;
13592;SDS011;6867;50.998;4.250;2023-04-24T08:06:53;16.30;;;6.63;;
13592;SDS011;6867;50.998;4.250;2023-04-24T08:09:19;13.80;;;7.10;;
13592;SDS011;6867;50.998;4.250;2023-04-24T08:11:46;15.73;;;7.83;;
13592;SDS011;6867;50.998;4.250;2023-04-24T08:14:14;12.77;;;7.17;;
13592;SDS011;6867;50.998;4.250;2023-04-24T08:16:41;14.73;;;6.93;;
13592;SDS011;6867;50.998;4.250;2023-04-24T08:19:07;15.23;;;6.10;;
13592;SDS011;6867;50.998;4.250;2023-04-24T08:21:34;16.77;;;6.80;;
13592;SDS011;6867;50.998;4.250;2023-04-24T08:24:01;16.23;;;6.27;;
13592;SDS011;6867;50.998;4.250;2023-04-24T08:26:30;13.07;;;5.03;;
13592;SDS011;6867;50.998;4.250;2023-04-24T08:28:56;9.63;;;4.37;;
13592;SDS011;6867;50.998;4.250;2023-04-24T08:31:24;16.57;;;5.43;;
13592;SDS011;6867;50.998;4.250;2023-04-24T08:33:52;15.07;;;4.83;;
13592;SDS011;6867;50.998;4.250;2023-04-24T08:36:18;8.63;;;4.23;;
13592;SDS011;6867;50.998;4.250;2023-04-24T08:38:45;11.03;;;5.07;;
13592;SDS011;6867;50.998;4.250;2023-04-24T08:41:12;12.40;;;5.20;;
13592;SDS011;6867;50.998;4.250;2023-04-24T08:43:40;15.87;;;5.97;;
13592;SDS011;6867;50.998;4.250;2023-04-24T08:46:08;9.10;;;5.37;;
13592;SDS011;6867;50.998;4.250;2023-04-24T08:48:37;14.40;;;5.90;;
13592;SDS011;6867;50.998;4.250;2023-04-24T08:51:04;12.37;;;6.40;;
13592;SDS011;6867;50.998;4.250;2023-04-24T08:53:33;9.00;;;5.10;;
13592;SDS011;6867;50.998;4.250;2023-04-24T08:56:01;12.43;;;5.80;;
13592;SDS011;6867;50.998;4.250;2023-04-24T08:58:28;10.13;;;5.70;;
13592;SDS011;6867;50.998;4.250;2023-04-24T09:00:56;12.73;;;5.93;;
13592;SDS011;6867;50.998;4.250;2023-04-24T09:03:24;12.80;;;6.43;;
13592;SDS011;6867;50.998;4.250;2023-04-24T09:05:54;15.10;;;6.27;;
13592;SDS011;6867;50.998;4.250;2023-04-24T09:08:23;12.13;;;5.20;;
13592;SDS011;6867;50.998;4.250;2023-04-24T09:10:51;10.40;;;4.50;;
13592;SDS011;6867;50.998;4.250;2023-04-24T09:13:18;9.07;;;4.73;;
13592;SDS011;6867;50.998;4.250;2023-04-24T09:15:46;18.53;;;4.67;;
13592;SDS011;6867;50.998;4.250;2023-04-24T09:18:13;8.63;;;4.77;;
13592;SDS011;6867;50.998;4.250;2023-04-24T09:23:27;8.82;;;4.15;;
13592;SDS011;6867;50.998;4.250;2023-04-24T09:25:54;10.33;;;4.53;;
13592;SDS011;6867;50.998;4.250;2023-04-24T09:28:25;6.27;;;3.43;;
13592;SDS011;6867;50.998;4.250;2023-04-24T09:31:01;12.83;;;3.77;;
13592;SDS011;6867;50.998;4.250;2023-04-24T09:33:31;7.87;;;4.07;;
13592;SDS011;6867;50.998;4.250;2023-04-24T09:36:00;8.83;;;3.20;;
13592;SDS011;6867;50.998;4.250;2023-04-24T09:38:30;7.17;;;3.23;;
13592;SDS011;6867;50.998;4.250;2023-04-24T09:40:59;8.68;;;3.25;;
13592;SDS011;6867;50.998;4.250;2023-04-24T09:43:27;6.55;;;3.47;;
13592;SDS011;6867;50.998;4.250;2023-04-24T09:45:55;6.00;;;3.20;;
13592;SDS011;6867;50.998;4.250;2023-04-24T09:48:29;6.93;;;3.60;;
13592;SDS011;6867;50.998;4.250;2023-04-24T09:50:57;8.10;;;3.80;;
13592;SDS011;6867;50.998;4.250;2023-04-24T09:53:25;5.90;;;3.67;;
13592;SDS011;6867;50.998;4.250;2023-04-24T09:55:52;7.75;;;3.13;;
13592;SDS011;6867;50.998;4.250;2023-04-24T09:58:21;6.73;;;3.77;;
13592;SDS011;6867;50.998;4.250;2023-04-24T10:00:53;7.67;;;3.67;;
13592;SDS011;6867;50.998;4.250;2023-04-24T10:03:23;8.30;;;3.70;;
13592;SDS011;6867;50.998;4.250;2023-04-24T10:05:51;7.20;;;3.20;;
13592;SDS011;6867;50.998;4.250;2023-04-24T10:08:18;6.23;;;3.60;;
13592;SDS011;6867;50.998;4.250;2023-04-24T10:10:46;9.83;;;3.60;;
13592;SDS011;6867;50.998;4.250;2023-04-24T10:13:13;4.80;;;2.77;;
13592;SDS011;6867;50.998;4.250;2023-04-24T10:15:41;7.25;;;3.50;;
13592;SDS011;6867;50.998;4.250;2023-04-24T10:18:08;9.02;;;3.80;;
13592;SDS011;6867;50.998;4.250;2023-04-24T10:20:37;8.20;;;3.65;;
13592;SDS011;6867;50.998;4.250;2023-04-24T10:23:06;6.82;;;3.28;;
13592;SDS011;6867;50.998;4.250;2023-04-24T10:25:33;6.90;;;4.03;;
13592;SDS011;6867;50.998;4.250;2023-04-24T10:28:02;5.65;;;2.83;;
13592;SDS011;6867;50.998;4.250;2023-04-24T10:30:30;5.03;;;3.30;;
13592;SDS011;6867;50.998;4.250;2023-04-24T10:33:00;5.25;;;3.05;;
13592;SDS011;6867;50.998;4.250;2023-04-24T10:35:26;9.50;;;3.47;;
13592;SDS011;6867;50.998;4.250;2023-04-24T10:37:58;13.25;;;3.88;;
13592;SDS011;6867;50.998;4.250;2023-04-24T10:40:30;7.15;;;3.25;;
13592;SDS011;6867;50.998;4.250;2023-04-24T10:42:58;6.10;;;3.10;;
13592;SDS011;6867;50.998;4.250;2023-04-24T10:45:26;5.20;;;3.55;;
13592;SDS011;6867;50.998;4.250;2023-04-24T10:47:56;4.93;;;3.05;;
13592;SDS011;6867;50.998;4.250;2023-04-24T10:50:25;5.13;;;3.08;;
13592;SDS011;6867;50.998;4.250;2023-04-24T10:52:53;6.20;;;3.30;;
13592;SDS011;6867;50.998;4.250;2023-04-24T10:58:07;4.72;;;3.15;;
13592;SDS011;6867;50.998;4.250;2023-04-24T11:00:37;4.68;;;2.90;;
13592;SDS011;6867;50.998;4.250;2023-04-24T11:03:05;4.55;;;3.00;;
13592;SDS011;6867;50.998;4.250;2023-04-24T11:05:51;5.85;;;3.70;;
13592;SDS011;6867;50.998;4.250;2023-04-24T11:08:26;5.45;;;3.50;;
13592;SDS011;6867;50.998;4.250;2023-04-24T11:10:56;6.75;;;3.80;;
13592;SDS011;6867;50.998;4.250;2023-04-24T11:13:24;6.47;;;3.65;;
13592;SDS011;6867;50.998;4.250;2023-04-24T11:18:49;3.90;;;2.88;;
13592;SDS011;6867;50.998;4.250;2023-04-24T11:21:19;8.68;;;3.67;;
13592;SDS011;6867;50.998;4.250;2023-04-24T11:23:46;4.68;;;2.85;;
13592;SDS011;6867;50.998;4.250;2023-04-24T11:26:17;6.43;;;3.22;;
13592;SDS011;6867;50.998;4.250;2023-04-24T11:28:45;5.57;;;3.33;;
13592;SDS011;6867;50.998;4.250;2023-04-24T11:34:09;6.72;;;4.00;;
13592;SDS011;6867;50.998;4.250;2023-04-24T11:36:37;7.55;;;3.08;;
13592;SDS011;6867;50.998;4.250;2023-04-24T11:39:04;5.75;;;3.97;;
13592;SDS011;6867;50.998;4.250;2023-04-24T11:41:31;6.32;;;3.17;;
13592;SDS011;6867;50.998;4.250;2023-04-24T11:44:00;4.35;;;3.20;;
13592;SDS011;6867;50.998;4.250;2023-04-24T11:46:27;6.03;;;3.60;;
13592;SDS011;6867;50.998;4.250;2023-04-24T11:48:56;7.78;;;4.28;;
13592;SDS011;6867;50.998;4.250;2023-04-24T11:51:24;5.55;;;3.47;;
13592;SDS011;6867;50.998;4.250;2023-04-24T11:53:52;3.80;;;3.20;;
13592;SDS011;6867;50.998;4.250;2023-04-24T11:56:21;5.45;;;3.60;;
13592;SDS011;6867;50.998;4.250;2023-04-24T11:58:48;8.02;;;3.53;;
13592;SDS011;6867;50.998;4.250;2023-04-24T12:01:14;7.00;;;3.03;;
13592;SDS011;6867;50.998;4.250;2023-04-24T12:03:46;5.13;;;3.60;;
13592;SDS011;6867;50.998;4.250;2023-04-24T12:06:16;4.15;;;3.13;;
13592;SDS011;6867;50.998;4.250;2023-04-24T12:08:45;5.65;;;3.33;;
13592;SDS011;6867;50.998;4.250;2023-04-24T12:11:14;11.35;;;3.10;;
13592;SDS011;6867;50.998;4.250;2023-04-24T12:13:42;4.38;;;2.95;;
13592;SDS011;6867;50.998;4.250;2023-04-24T12:16:10;6.70;;;2.88;;
13592;SDS011;6867;50.998;4.250;2023-04-24T12:18:41;4.60;;;3.40;;
13592;SDS011;6867;50.998;4.250;2023-04-24T12:21:16;4.75;;;3.50;;
13592;SDS011;6867;50.998;4.250;2023-04-24T12:23:45;4.72;;;3.08;;
13592;SDS011;6867;50.998;4.250;2023-04-24T12:26:12;5.85;;;3.30;;
13592;SDS011;6867;50.998;4.250;2023-04-24T12:28:42;5.45;;;3.50;;
13592;SDS011;6867;50.998;4.250;2023-04-24T12:31:09;6.07;;;3.45;;
13592;SDS011;6867;50.998;4.250;2023-04-24T12:33:35;6.07;;;3.47;;
13592;SDS011;6867;50.998;4.250;2023-04-24T12:36:03;6.00;;;3.25;;
13592;SDS011;6867;50.998;4.250;2023-04-24T12:38:32;6.93;;;3.15;;
13592;SDS011;6867;50.998;4.250;2023-04-24T12:41:05;4.28;;;2.88;;
13592;SDS011;6867;50.998;4.250;2023-04-24T12:43:33;6.78;;;3.33;;
13592;SDS011;6867;50.998;4.250;2023-04-24T12:46:00;8.98;;;3.13;;
13592;SDS011;6867;50.998;4.250;2023-04-24T12:48:28;6.63;;;3.67;;
13592;SDS011;6867;50.998;4.250;2023-04-24T12:50:56;6.10;;;3.30;;
13592;SDS011;6867;50.998;4.250;2023-04-24T12:53:26;5.45;;;2.90;;
13592;SDS011;6867;50.998;4.250;2023-04-24T12:55:55;3.78;;;2.80;;
13592;SDS011;6867;50.998;4.250;2023-04-24T12:58:22;5.88;;;2.85;;
13592;SDS011;6867;50.998;4.250;2023-04-24T13:00:49;4.78;;;2.65;;
13592;SDS011;6867;50.998;4.250;2023-04-24T13:03:16;6.10;;;2.40;;
13592;SDS011;6867;50.998;4.250;2023-04-24T13:05:44;4.68;;;2.65;;
13592;SDS011;6867;50.998;4.250;2023-04-24T13:08:10;5.97;;;2.85;;
13592;SDS011;6867;50.998;4.250;2023-04-24T13:10:38;4.32;;;1.90;;
13592;SDS011;6867;50.998;4.250;2023-04-24T13:13:06;4.00;;;2.25;;
13592;SDS011;6867;50.998;4.250;2023-04-24T13:15:33;5.63;;;2.17;;
13592;SDS011;6867;50.998;4.250;2023-04-24T13:18:00;2.35;;;1.90;;
13592;SDS011;6867;50.998;4.250;2023-04-24T13:20:27;3.97;;;1.58;;
13592;SDS011;6867;50.998;4.250;2023-04-24T13:22:53;6.38;;;2.30;;
13592;SDS011;6867;50.998;4.250;2023-04-24T13:25:20;4.07;;;2.08;;
13592;SDS011;6867;50.998;4.250;2023-04-24T13:27:48;3.50;;;1.92;;
13592;SDS011;6867;50.998;4.250;2023-04-24T13:30:17;3.65;;;1.77;;
13592;SDS011;6867;50.998;4.250;2023-04-24T13:32:44;3.13;;;2.10;;
13592;SDS011;6867;50.998;4.250;2023-04-24T13:35:10;3.65;;;1.85;;
13592;SDS011;6867;50.998;4.250;2023-04-24T13:37:37;2.90;;;1.73;;
13592;SDS011;6867;50.998;4.250;2023-04-24T13:40:04;1.90;;;1.50;;
13592;SDS011;6867;50.998;4.250;2023-04-24T13:42:32;2.95;;;1.83;;
13592;SDS011;6867;50.998;4.250;2023-04-24T13:44:59;4.72;;;1.90;;
13592;SDS011;6867;50.998;4.250;2023-04-24T13:47:27;2.38;;;1.88;;
13592;SDS011;6867;50.998;4.250;2023-04-24T13:49:53;4.72;;;1.90;;
13592;SDS011;6867;50.998;4.250;2023-04-24T13:52:20;3.00;;;1.75;;
13592;SDS011;6867;50.998;4.250;2023-04-24T13:54:47;3.83;;;2.03;;
13592;SDS011;6867;50.998;4.250;2023-04-24T13:57:14;5.75;;;1.70;;
13592;SDS011;6867;50.998;4.250;2023-04-24T13:59:41;2.45;;;1.23;;
13592;SDS011;6867;50.998;4.250;2023-04-24T14:02:08;8.13;;;1.75;;
13592;SDS011;6867;50.998;4.250;2023-04-24T14:04:36;3.72;;;1.70;;
13592;SDS011;6867;50.998;4.250;2023-04-24T14:07:03;3.92;;;2.28;;
13592;SDS011;6867;50.998;4.250;2023-04-24T14:09:30;5.32;;;3.30;;
13592;SDS011;6867;50.998;4.250;2023-04-24T14:11:56;9.70;;;4.50;;
13592;SDS011;6867;50.998;4.250;2023-04-24T14:14:23;5.25;;;4.10;;
13592;SDS011;6867;50.998;4.250;2023-04-24T14:16:50;4.85;;;3.28;;
13592;SDS011;6867;50.998;4.250;2023-04-24T14:19:17;4.05;;;2.35;;
13592;SDS011;6867;50.998;4.250;2023-04-24T14:21:45;5.50;;;2.58;;
13592;SDS011;6867;50.998;4.250;2023-04-24T14:24:12;5.47;;;2.80;;
13592;SDS011;6867;50.998;4.250;2023-04-24T14:26:38;4.40;;;2.00;;
13592;SDS011;6867;50.998;4.250;2023-04-24T14:29:05;3.08;;;1.50;;
13592;SDS011;6867;50.998;4.250;2023-04-24T14:31:32;3.58;;;1.40;;
13592;SDS011;6867;50.998;4.250;2023-04-24T14:33:58;2.80;;;1.80;;
13592;SDS011;6867;50.998;4.250;2023-04-24T14:36:25;4.53;;;2.08;;
13592;SDS011;6867;50.998;4.250;2023-04-24T14:38:53;4.35;;;2.03;;
13592;SDS011;6867;50.998;4.250;2023-04-24T14:41:20;2.42;;;2.10;;
13592;SDS011;6867;50.998;4.250;2023-04-24T14:43:46;3.80;;;2.65;;
13592;SDS011;6867;50.998;4.250;2023-04-24T14:46:13;3.03;;;2.42;;
13592;SDS011;6867;50.998;4.250;2023-04-24T14:48:40;4.55;;;2.53;;
13592;SDS011;6867;50.998;4.250;2023-04-24T14:51:07;5.82;;;2.45;;
13592;SDS011;6867;50.998;4.250;2023-04-24T14:53:33;5.60;;;2.55;;
13592;SDS011;6867;50.998;4.250;2023-04-24T14:56:01;7.80;;;2.85;;
13592;SDS011;6867;50.998;4.250;2023-04-24T14:58:28;11.95;;;2.95;;
13592;SDS011;6867;50.998;4.250;2023-04-24T15:00:55;6.40;;;2.70;;
13592;SDS011;6867;50.998;4.250;2023-04-24T15:03:22;3.63;;;2.70;;